createdAt,value
2023-01-20T00:01:43.618Z,94653.00
2023-01-20T00:04:11.706Z,94656.94
2023-01-20T00:06:39.479Z,94661.44
2023-01-20T00:09:07.558Z,94660.28
2023-01-20T00:11:36.636Z,94660.16
2023-01-20T00:14:04.441Z,94653.56
2023-01-20T00:16:33.476Z,94652.28
2023-01-20T00:19:01.221Z,94659.81
2023-01-20T00:21:31.352Z,94657.25
2023-01-20T00:23:59.040Z,94670.22
2023-01-20T00:26:26.921Z,94665.47
2023-01-20T00:28:57.658Z,94669.88
2023-01-20T00:31:27.507Z,94668.69
2023-01-20T00:33:57.011Z,94668.94
2023-01-20T00:36:25.894Z,94672.06
2023-01-20T00:38:53.944Z,94669.63
2023-01-20T00:41:21.902Z,94673.91
2023-01-20T00:43:49.664Z,94675.06
2023-01-20T00:46:19.023Z,94671.25
2023-01-20T00:48:46.772Z,94675.31
2023-01-20T00:51:14.593Z,94681.31
2023-01-20T00:53:42.326Z,94677.03
2023-01-20T00:56:10.019Z,94683.75
2023-01-20T00:58:37.705Z,94689.66
2023-01-20T01:01:05.639Z,94678.19
2023-01-20T01:03:35.865Z,94686.06
2023-01-20T01:06:09.078Z,94683.97
2023-01-20T01:08:37.053Z,94689.88
2023-01-20T01:11:05.484Z,94687.22
2023-01-20T01:13:33.795Z,94683.63
2023-01-20T01:16:01.731Z,94694.38
2023-01-20T01:18:29.593Z,94691.38
2023-01-20T01:20:58.690Z,94699.56
2023-01-20T01:23:26.408Z,94700.38
2023-01-20T01:25:54.090Z,94702.72
2023-01-20T01:28:21.746Z,94704.31
2023-01-20T01:30:49.530Z,94702.34
2023-01-20T01:33:17.254Z,94708.13
2023-01-20T01:35:45.004Z,94705.81
2023-01-20T01:38:14.068Z,94709.16
2023-01-20T01:40:41.759Z,94712.50
2023-01-20T01:43:21.619Z,94715.38
2023-01-20T01:45:49.415Z,94709.72
2023-01-20T01:48:19.592Z,94713.88
2023-01-20T01:50:54.133Z,94703.47
2023-01-20T01:53:23.840Z,94703.47
2023-01-20T01:55:55.203Z,94703.69
2023-01-20T01:58:28.795Z,94704.28
2023-01-20T02:00:56.704Z,94712.47
2023-01-20T02:03:24.928Z,94706.00
2023-01-20T02:05:53.951Z,94717.44
2023-01-20T02:08:23.654Z,94711.41
2023-01-20T02:10:51.352Z,94708.84
2023-01-20T02:13:19.357Z,94717.03
2023-01-20T02:15:56.821Z,94718.41
2023-01-20T02:18:37.814Z,94716.78
2023-01-20T02:21:40.900Z,94718.34
2023-01-20T02:24:53.307Z,94720.78
2023-01-20T02:27:43.119Z,94714.56
2023-01-20T02:30:35.723Z,94717.91
2023-01-20T02:33:10.936Z,94727.72
2023-01-20T02:35:44.615Z,94726.00
2023-01-20T02:38:19.239Z,94727.03
2023-01-20T02:40:55.352Z,94729.09
2023-01-20T02:43:31.294Z,94727.84
2023-01-20T02:46:06.717Z,94730.28
2023-01-20T02:48:44.227Z,94732.34
2023-01-20T02:51:21.152Z,94741.34
2023-01-20T02:53:52.955Z,94738.03
2023-01-20T02:56:28.099Z,94736.75
2023-01-20T02:58:59.172Z,94737.00
2023-01-20T03:01:32.961Z,94735.28
2023-01-20T03:04:04.554Z,94738.06
2023-01-20T03:06:37.619Z,94742.72
2023-01-20T03:09:10.010Z,94741.91
2023-01-20T03:11:42.082Z,94743.41
2023-01-20T03:14:12.097Z,94749.09
2023-01-20T03:16:41.738Z,94750.50
2023-01-20T03:19:11.284Z,94753.50
2023-01-20T03:21:39.025Z,94744.63
2023-01-20T03:24:07.997Z,94746.25
2023-01-20T03:26:38.820Z,94749.84
2023-01-20T03:29:08.032Z,94746.38
2023-01-20T03:31:40.499Z,94754.56
2023-01-20T03:34:12.696Z,94752.50
2023-01-20T03:36:41.471Z,94758.63
2023-01-20T03:39:11.943Z,94763.50
2023-01-20T03:41:52.117Z,94758.63
2023-01-20T03:44:25.576Z,94763.13
2023-01-20T03:46:58.046Z,94761.66
2023-01-20T03:49:32.057Z,94761.88
2023-01-20T03:52:06.012Z,94780.03
2023-01-20T03:54:43.781Z,94778.06
2023-01-20T03:57:16.154Z,94775.97
2023-01-20T03:59:49.384Z,94788.34
2023-01-20T04:02:17.159Z,94785.94
2023-01-20T04:04:50.386Z,94788.72
2023-01-20T04:07:22.318Z,94786.78
2023-01-20T04:09:54.289Z,94793.94
2023-01-20T04:12:22.064Z,94796.59
2023-01-20T04:14:49.763Z,94790.03
2023-01-20T04:17:17.700Z,94806.56
2023-01-20T04:19:46.809Z,94791.88
2023-01-20T04:22:24.183Z,94805.63
2023-01-20T04:24:58.242Z,94803.91
2023-01-20T04:27:25.975Z,94799.16
2023-01-20T04:29:53.736Z,94804.34
2023-01-20T04:32:21.439Z,94810.03
2023-01-20T04:34:53.440Z,94815.09
2023-01-20T04:37:26.128Z,94815.38
2023-01-20T04:39:53.812Z,94815.09
2023-01-20T04:42:21.497Z,94818.34
2023-01-20T04:44:49.237Z,94823.13
2023-01-20T04:47:16.931Z,94825.44
2023-01-20T04:49:44.652Z,94828.69
2023-01-20T04:52:13.762Z,94836.88
2023-01-20T04:54:41.463Z,94840.59
2023-01-20T04:57:09.201Z,94842.44
2023-01-20T04:59:36.907Z,94839.63
2023-01-20T05:02:04.630Z,94852.25
2023-01-20T05:04:32.299Z,94844.94
2023-01-20T05:07:00.019Z,94851.78
2023-01-20T05:09:30.434Z,94856.50
2023-01-20T05:11:59.418Z,94861.84
2023-01-20T05:14:27.108Z,94857.91
2023-01-20T05:16:55.288Z,94859.66
2023-01-20T05:19:22.968Z,94862.31
2023-01-20T05:21:53.661Z,94866.72
2023-01-20T05:24:21.472Z,94867.50
2023-01-20T05:26:49.120Z,94872.72
2023-01-20T05:29:18.321Z,94869.03
2023-01-20T05:31:46.081Z,94870.50
2023-01-20T05:34:13.814Z,94880.34
2023-01-20T05:36:41.538Z,94882.41
2023-01-20T05:39:09.197Z,94879.41
2023-01-20T05:41:36.943Z,94881.72
2023-01-20T05:44:04.611Z,94892.13
2023-01-20T05:46:33.708Z,94892.34
2023-01-20T05:49:02.978Z,94892.56
2023-01-20T05:51:32.068Z,94889.31
2023-01-20T05:53:59.867Z,94894.84
2023-01-20T05:56:27.553Z,94896.84
2023-01-20T05:58:55.934Z,94900.09
2023-01-20T06:01:24.151Z,94901.94
2023-01-20T06:03:53.232Z,94911.22
2023-01-20T06:06:20.930Z,94912.16
2023-01-20T06:08:49.554Z,94912.38
2023-01-20T06:11:18.002Z,94924.97
2023-01-20T06:13:47.926Z,94918.84
2023-01-20T06:16:17.151Z,94918.38
2023-01-20T06:18:44.978Z,94930.28
2023-01-20T06:21:14.045Z,94924.75
2023-01-20T06:23:42.246Z,94933.19
2023-01-20T06:26:13.567Z,94933.41
2023-01-20T06:28:41.248Z,94934.34
2023-01-20T06:31:10.956Z,94937.94
2023-01-20T06:33:38.870Z,94945.75
2023-01-20T06:36:07.004Z,94935.34
2023-01-20T06:38:36.697Z,94950.47
2023-01-20T06:41:06.517Z,94956.63
2023-01-20T06:43:35.847Z,94952.47
2023-01-20T06:46:05.123Z,94962.31
2023-01-20T06:48:33.321Z,94963.50
2023-01-20T06:51:04.567Z,94963.94
2023-01-20T06:53:32.445Z,94964.38
2023-01-20T06:56:02.460Z,94968.22
2023-01-20T06:58:32.735Z,94972.72
2023-01-20T07:01:08.657Z,94973.38
2023-01-20T07:03:36.658Z,94972.19
2023-01-20T07:06:06.405Z,94973.81
2023-01-20T07:08:34.144Z,94977.22
2023-01-20T07:11:05.501Z,94989.34
2023-01-20T07:13:33.255Z,94990.75
2023-01-20T07:16:01.000Z,94994.22
2023-01-20T07:18:28.690Z,94987.66
2023-01-20T07:20:57.035Z,94995.41
2023-01-20T07:23:25.220Z,94998.78
2023-01-20T07:25:58.724Z,95006.75
2023-01-20T07:28:28.095Z,95005.50
2023-01-20T07:30:55.946Z,95011.44
2023-01-20T07:33:23.821Z,95011.06
2023-01-20T07:35:55.136Z,95023.69
2023-01-20T07:38:22.835Z,95024.41
2023-01-20T07:40:50.482Z,95031.00
2023-01-20T07:43:18.179Z,95035.63
2023-01-20T07:45:47.297Z,95037.41
2023-01-20T07:48:15.571Z,95037.69
2023-01-20T07:50:43.267Z,95042.78
2023-01-20T07:53:10.946Z,95042.34
2023-01-20T07:55:38.645Z,95049.16
2023-01-20T07:58:06.422Z,95050.72
2023-01-20T08:00:34.168Z,95046.88
2023-01-20T08:03:03.282Z,95059.13
2023-01-20T08:05:33.532Z,95057.81
2023-01-20T08:08:01.242Z,95053.53
2023-01-20T08:10:29.226Z,95050.72
2023-01-20T08:12:57.043Z,95062.53
2023-01-20T08:15:24.780Z,95057.34
2023-01-20T08:17:54.753Z,95061.03
2023-01-20T08:20:24.015Z,95064.94
2023-01-20T08:22:51.798Z,95059.16
2023-01-20T08:25:19.712Z,95075.50
2023-01-20T08:27:49.143Z,95071.56
2023-01-20T08:30:17.093Z,95074.28
2023-01-20T08:32:44.834Z,95076.75
2023-01-20T08:35:12.996Z,95075.41
2023-01-20T08:37:42.154Z,95079.38
2023-01-20T08:40:11.943Z,95080.06
2023-01-20T08:42:40.232Z,95077.34
2023-01-20T08:45:09.835Z,95077.72
2023-01-20T08:47:38.924Z,95092.28
2023-01-20T08:50:08.622Z,95100.94
2023-01-20T08:52:36.358Z,95087.59
2023-01-20T08:55:06.038Z,95098.28
2023-01-20T08:57:33.863Z,95105.47
2023-01-20T09:00:01.812Z,95108.22
2023-01-20T09:02:29.572Z,95106.81
2023-01-20T09:04:57.288Z,95105.72
2023-01-20T09:07:25.031Z,95112.91
2023-01-20T09:09:52.892Z,95110.94
2023-01-20T09:12:21.962Z,95111.53
2023-01-20T09:14:49.745Z,95117.09
2023-01-20T09:17:17.575Z,95126.75
2023-01-20T09:19:45.286Z,95125.03
2023-01-20T09:22:12.954Z,95132.72
2023-01-20T09:24:41.355Z,95129.47
2023-01-20T09:27:09.094Z,95136.56
2023-01-20T09:29:38.144Z,95128.22
2023-01-20T09:32:05.959Z,95141.31
2023-01-20T09:34:34.809Z,95139.69
2023-01-20T09:37:17.510Z,95141.34
2023-01-20T09:40:02.482Z,95138.22
2023-01-20T09:42:54.755Z,95143.91
2023-01-20T09:45:29.071Z,95139.63
2023-01-20T09:48:14.170Z,95146.97
2023-01-20T09:51:07.362Z,95149.56
2023-01-20T09:53:47.189Z,95160.56
2023-01-20T09:56:17.931Z,95150.38
2023-01-20T09:58:53.943Z,95150.81
2023-01-20T10:01:33.716Z,95151.75
2023-01-20T10:04:09.527Z,95155.56
2023-01-20T10:06:41.954Z,95146.41
2023-01-20T10:09:21.315Z,95146.41
2023-01-20T10:11:50.506Z,95150.31
2023-01-20T10:14:25.001Z,95155.22
2023-01-20T10:16:59.399Z,95151.50
2023-01-20T10:19:42.371Z,95164.06
2023-01-20T10:22:14.301Z,95153.16
2023-01-20T10:24:52.952Z,95154.53
2023-01-20T10:27:20.703Z,95152.31
2023-01-20T10:29:54.167Z,95165.91
2023-01-20T10:32:33.352Z,95156.00
2023-01-20T10:35:09.067Z,95149.16
2023-01-20T10:37:37.340Z,95155.47
2023-01-20T10:40:16.725Z,95157.31
2023-01-20T10:42:48.454Z,95153.81
2023-01-20T10:45:27.927Z,95155.19
2023-01-20T10:48:06.891Z,95162.03
2023-01-20T10:50:44.653Z,95157.09
2023-01-20T10:53:35.714Z,95151.97
2023-01-20T10:56:24.819Z,95159.25
2023-01-20T10:58:52.851Z,95155.53
2023-01-20T11:01:21.550Z,95155.56
2023-01-20T11:03:51.001Z,95155.91
2023-01-20T11:06:21.683Z,95154.66
2023-01-20T11:08:49.952Z,95160.38
2023-01-20T11:11:21.466Z,95149.72
2023-01-20T11:13:53.906Z,95158.47
2023-01-20T11:16:24.608Z,95157.00
2023-01-20T11:19:01.748Z,95160.38
2023-01-20T11:21:33.599Z,95159.22
2023-01-20T11:24:01.730Z,95156.72
2023-01-20T11:26:33.368Z,95161.22
2023-01-20T11:29:03.027Z,95162.16
2023-01-20T11:31:40.577Z,95159.84
2023-01-20T11:34:24.262Z,95162.94
2023-01-20T11:37:12.901Z,95157.41
2023-01-20T11:40:00.186Z,95162.94
2023-01-20T11:42:30.035Z,95161.03
2023-01-20T11:45:19.754Z,95155.50
2023-01-20T11:48:00.873Z,95159.47
2023-01-20T11:50:35.368Z,95153.97
2023-01-20T11:53:19.390Z,95155.47
2023-01-20T11:55:51.162Z,95158.13
2023-01-20T11:58:21.348Z,95163.81
2023-01-20T12:00:51.306Z,95159.25
2023-01-20T12:03:46.374Z,95159.25
2023-01-20T12:06:19.978Z,95162.41
2023-01-20T12:08:54.677Z,95155.38
2023-01-20T12:11:28.459Z,95161.53
2023-01-20T12:14:22.838Z,95151.47
2023-01-20T12:16:58.225Z,95163.19
2023-01-20T12:19:28.344Z,95155.16
2023-01-20T12:22:04.310Z,95153.91
2023-01-20T12:24:53.365Z,95168.91
2023-01-20T12:27:26.798Z,95163.19
2023-01-20T12:29:59.736Z,95166.81
2023-01-20T12:32:29.220Z,95172.63
2023-01-20T12:34:57.016Z,95172.06
2023-01-20T12:37:32.894Z,95175.06
2023-01-20T12:40:20.074Z,95174.28
2023-01-20T12:43:08.212Z,95176.47
2023-01-20T12:45:46.945Z,95181.94
2023-01-20T12:48:36.848Z,95177.16
2023-01-20T12:51:20.654Z,95179.25
2023-01-20T12:54:17.549Z,95176.38
2023-01-20T12:56:53.639Z,95182.28
2023-01-20T12:59:36.913Z,95185.16
2023-01-20T13:02:30.296Z,95178.41
2023-01-20T13:05:19.859Z,95183.78
2023-01-20T13:08:01.952Z,95175.53
2023-01-20T13:10:56.020Z,95178.19
2023-01-20T13:13:55.785Z,95189.13
2023-01-20T13:16:33.374Z,95188.31
2023-01-20T13:19:11.437Z,95195.97
2023-01-20T13:21:41.114Z,95193.19
2023-01-20T13:24:18.930Z,95195.38
2023-01-20T13:26:49.667Z,95199.22
2023-01-20T13:29:24.695Z,95196.78
2023-01-20T13:31:53.865Z,95206.88
2023-01-20T13:34:35.978Z,95203.41
2023-01-20T13:37:23.818Z,95210.94
2023-01-20T13:39:53.201Z,95210.09
2023-01-20T13:42:51.397Z,95208.34
2023-01-20T13:45:25.753Z,95212.41
2023-01-20T13:47:59.455Z,95228.25
2023-01-20T13:50:31.059Z,95223.34
2023-01-20T13:53:31.529Z,95231.19
2023-01-20T13:56:00.779Z,95231.69
2023-01-20T13:58:32.481Z,95238.91
2023-01-20T14:01:04.580Z,95235.97
2023-01-20T14:03:35.030Z,95235.84
2023-01-20T14:06:06.016Z,95239.34
2023-01-20T14:08:40.912Z,95239.78
2023-01-20T14:11:12.545Z,95245.22
2023-01-20T14:13:42.537Z,95239.19
2023-01-20T14:16:20.609Z,95243.16
2023-01-20T14:18:49.163Z,95247.44
2023-01-20T14:21:23.536Z,95248.31
2023-01-20T14:23:52.377Z,95252.59
2023-01-20T14:26:24.825Z,95255.63
2023-01-20T14:28:56.344Z,95253.66
2023-01-20T14:31:33.984Z,95255.22
2023-01-20T14:34:04.474Z,95261.38
2023-01-20T14:36:34.136Z,95260.63
2023-01-20T14:39:04.366Z,95267.81
2023-01-20T14:41:35.041Z,95261.66
2023-01-20T14:44:04.694Z,95268.72
2023-01-20T14:46:34.102Z,95278.38
2023-01-20T14:49:04.809Z,95279.78
2023-01-20T14:51:34.230Z,95280.72
2023-01-20T14:54:37.194Z,95287.75
2023-01-20T14:57:21.825Z,95295.31
2023-01-20T15:00:03.298Z,95289.41
2023-01-20T15:02:33.332Z,95294.06
2023-01-20T15:05:01.213Z,95292.81
2023-01-20T15:07:29.225Z,95299.63
2023-01-20T15:10:03.035Z,95299.19
2023-01-20T15:12:55.809Z,95303.91
2023-01-20T15:15:29.874Z,95308.28
2023-01-20T15:18:15.960Z,95302.78
2023-01-20T15:20:45.659Z,95306.28
2023-01-20T15:23:32.697Z,95314.97
2023-01-20T15:26:09.496Z,95309.31
2023-01-20T15:28:42.444Z,95317.97
2023-01-20T15:31:15.115Z,95313.53
2023-01-20T15:33:43.173Z,95312.78
2023-01-20T15:36:23.514Z,95316.59
2023-01-20T15:38:51.712Z,95320.50
2023-01-20T15:41:19.739Z,95325.84
2023-01-20T15:43:49.107Z,95325.84
2023-01-20T15:46:18.774Z,95333.38
2023-01-20T15:48:47.270Z,95324.13
2023-01-20T15:51:16.669Z,95334.78
2023-01-20T15:53:45.524Z,95338.34
2023-01-20T15:56:20.121Z,95344.94
2023-01-20T15:58:48.382Z,95338.34
2023-01-20T16:01:19.665Z,95341.81
2023-01-20T16:03:47.593Z,95343.47
2023-01-20T16:06:17.046Z,95347.88
2023-01-20T16:08:47.705Z,95353.81
2023-01-20T16:11:15.957Z,95364.09
2023-01-20T16:13:44.448Z,95363.44
2023-01-20T16:16:14.626Z,95360.78
2023-01-20T16:18:44.004Z,95362.25
2023-01-20T16:21:12.547Z,95363.81
2023-01-20T16:23:40.484Z,95363.00
2023-01-20T16:26:20.443Z,95354.56
2023-01-20T16:28:48.134Z,95369.16
2023-01-20T16:31:16.094Z,95362.63
2023-01-20T16:33:46.531Z,95369.97
2023-01-20T16:36:15.789Z,95365.66
2023-01-20T16:38:44.738Z,95377.38
2023-01-20T16:41:16.218Z,95375.75
2023-01-20T16:43:44.823Z,95374.53
2023-01-20T16:46:15.311Z,95376.13
2023-01-20T16:48:50.085Z,95374.69
2023-01-20T16:51:19.858Z,95382.75
2023-01-20T16:53:47.623Z,95383.78
2023-01-20T16:56:16.198Z,95386.31
2023-01-20T16:58:44.027Z,95386.31
2023-01-20T17:01:13.266Z,95385.13
2023-01-20T17:03:41.381Z,95393.72
2023-01-20T17:06:17.482Z,95395.56
2023-01-20T17:08:45.750Z,95388.38
2023-01-20T17:11:17.849Z,95406.44
2023-01-20T17:13:45.667Z,95401.50
2023-01-20T17:16:13.736Z,95408.91
2023-01-20T17:18:44.688Z,95405.13
2023-01-20T17:21:14.826Z,95411.13
2023-01-20T17:23:44.134Z,95415.63
2023-01-20T17:26:11.787Z,95416.47
2023-01-20T17:28:41.810Z,95415.44
2023-01-20T17:31:09.509Z,95422.59
2023-01-20T17:33:37.265Z,95431.97
2023-01-20T17:36:06.852Z,95427.03
2023-01-20T17:38:36.253Z,95428.53
2023-01-20T17:41:05.370Z,95430.09
2023-01-20T17:43:33.736Z,95435.63
2023-01-20T17:46:01.962Z,95431.94
2023-01-20T17:48:30.181Z,95436.28
2023-01-20T17:50:59.286Z,95434.44
2023-01-20T17:53:27.451Z,95439.97
2023-01-20T17:56:10.977Z,95438.72
2023-01-20T17:58:40.475Z,95439.97
2023-01-20T18:01:13.295Z,95444.66
2023-01-20T18:03:43.053Z,95443.41
2023-01-20T18:06:12.931Z,95447.28
2023-01-20T18:08:40.792Z,95452.81
2023-01-20T18:11:11.381Z,95449.34
2023-01-20T18:13:39.744Z,95457.13
2023-01-20T18:16:08.907Z,95454.84
2023-01-20T18:18:36.598Z,95459.56
2023-01-20T18:21:11.105Z,95459.19
2023-01-20T18:23:39.524Z,95455.28
2023-01-20T18:26:09.823Z,95463.50
2023-01-20T18:28:38.475Z,95467.63
2023-01-20T18:31:08.943Z,95468.88
2023-01-20T18:33:39.711Z,95470.50
2023-01-20T18:36:08.833Z,95472.78
2023-01-20T18:38:36.536Z,95467.22
2023-01-20T18:41:04.399Z,95468.72
2023-01-20T18:43:33.441Z,95475.00
2023-01-20T18:46:01.127Z,95463.09
2023-01-20T18:48:28.783Z,95477.69
2023-01-20T18:50:59.992Z,95465.59
2023-01-20T18:53:38.795Z,95476.50
2023-01-20T18:56:09.584Z,95479.53
2023-01-20T18:58:41.277Z,95468.88
2023-01-20T19:01:10.545Z,95481.38
2023-01-20T19:03:39.465Z,95480.78
2023-01-20T19:06:10.867Z,95482.50
2023-01-20T19:08:39.128Z,95481.88
2023-01-20T19:11:09.205Z,95478.41
2023-01-20T19:13:38.258Z,95483.53
2023-01-20T19:16:10.113Z,95481.06
2023-01-20T19:18:38.045Z,95484.97
2023-01-20T19:21:06.454Z,95489.88
2023-01-20T19:23:34.171Z,95483.72
2023-01-20T19:26:18.446Z,95484.38
2023-01-20T19:28:48.658Z,95486.63
2023-01-20T19:31:18.425Z,95486.41
2023-01-20T19:33:48.885Z,95495.03
2023-01-20T19:36:18.251Z,95490.13
2023-01-20T19:38:46.559Z,95495.47
2023-01-20T19:41:16.665Z,95496.75
2023-01-20T19:43:45.445Z,95500.19
2023-01-20T19:46:16.262Z,95501.47
2023-01-20T19:48:44.322Z,95510.84
2023-01-20T19:51:13.726Z,95506.19
2023-01-20T19:53:41.729Z,95514.34
2023-01-20T19:56:11.644Z,95502.09
2023-01-20T19:58:40.111Z,95512.13
2023-01-20T20:01:08.671Z,95510.41
2023-01-20T20:03:38.083Z,95520.34
2023-01-20T20:06:08.238Z,95512.75
2023-01-20T20:08:36.737Z,95509.88
2023-01-20T20:11:04.526Z,95512.47
2023-01-20T20:13:32.201Z,95514.41
2023-01-20T20:16:03.523Z,95516.84
2023-01-20T20:18:31.455Z,95516.47
2023-01-20T20:21:00.601Z,95527.94
2023-01-20T20:23:29.797Z,95526.69
2023-01-20T20:25:57.558Z,95531.41
2023-01-20T20:28:25.639Z,95522.63
2023-01-20T20:30:55.386Z,95521.00
2023-01-20T20:33:24.082Z,95525.91
2023-01-20T20:35:51.794Z,95523.84
2023-01-20T20:38:20.830Z,95533.09
2023-01-20T20:40:48.476Z,95531.22
2023-01-20T20:43:16.163Z,95530.41
2023-01-20T20:45:43.825Z,95531.88
2023-01-20T20:48:11.531Z,95538.47
2023-01-20T20:50:39.174Z,95542.31
2023-01-20T20:53:06.905Z,95543.78
2023-01-20T20:55:40.248Z,95541.34
2023-01-20T20:58:08.473Z,95542.78
2023-01-20T21:00:36.627Z,95544.97
2023-01-20T21:03:06.835Z,95546.47
2023-01-20T21:05:34.808Z,95536.84
2023-01-20T21:08:04.683Z,95537.03
2023-01-20T21:10:32.461Z,95544.00
2023-01-20T21:13:01.487Z,95543.63
2023-01-20T21:15:30.441Z,95540.94
2023-01-20T21:17:58.303Z,95543.78
2023-01-20T21:20:25.978Z,95547.50
2023-01-20T21:22:53.667Z,95548.88
2023-01-20T21:25:24.029Z,95544.44
2023-01-20T21:27:51.760Z,95546.22
2023-01-20T21:30:21.134Z,95548.66
2023-01-20T21:32:48.823Z,95557.94
2023-01-20T21:35:16.621Z,95555.50
2023-01-20T21:37:44.476Z,95557.13
2023-01-20T21:40:13.480Z,95556.50
2023-01-20T21:42:41.208Z,95552.59
2023-01-20T21:45:09.281Z,95552.00
2023-01-20T21:47:38.381Z,95556.50
2023-01-20T21:50:24.261Z,95553.84
2023-01-20T21:52:52.099Z,95556.31
2023-01-20T21:55:21.472Z,95558.78
2023-01-20T21:57:51.512Z,95560.81
2023-01-20T22:00:19.823Z,95563.69
2023-01-20T22:02:48.985Z,95565.47
2023-01-20T22:05:17.776Z,95564.72
2023-01-20T22:07:47.810Z,95569.84
2023-01-20T22:10:15.808Z,95570.88
2023-01-20T22:12:43.584Z,95567.81
2023-01-20T22:15:12.090Z,95567.44
2023-01-20T22:17:41.363Z,95562.94
2023-01-20T22:20:12.367Z,95570.13
2023-01-20T22:22:40.011Z,95566.88
2023-01-20T22:25:08.181Z,95574.03
2023-01-20T22:27:35.811Z,95565.41
2023-01-20T22:30:03.540Z,95566.25
2023-01-20T22:32:31.234Z,95568.09
2023-01-20T22:34:58.956Z,95581.22
2023-01-20T22:37:27.991Z,95570.13
2023-01-20T22:39:55.698Z,95567.88
2023-01-20T22:42:23.344Z,95575.84
2023-01-20T22:44:50.965Z,95573.41
2023-01-20T22:47:18.617Z,95574.03
2023-01-20T22:49:46.259Z,95579.94
2023-01-20T22:52:14.102Z,95577.31
2023-01-20T22:54:43.112Z,95580.16
2023-01-20T23:01:55.115Z,95584.50
2023-01-20T23:04:22.820Z,95585.09
2023-01-20T23:06:50.464Z,95578.56
2023-01-20T23:09:18.213Z,95586.38
2023-01-20T23:11:46.776Z,95583.72
2023-01-20T23:17:11.468Z,95586.19
2023-01-20T23:19:39.134Z,95590.03
2023-01-20T23:22:06.774Z,95593.09
2023-01-20T23:24:34.564Z,95592.06
2023-01-20T23:27:02.205Z,95585.50
2023-01-20T23:29:30.051Z,95584.28
2023-01-20T23:31:57.743Z,95585.75
2023-01-20T23:34:27.268Z,95578.56
2023-01-20T23:36:54.955Z,95577.31
2023-01-20T23:39:22.790Z,95578.13
2023-01-20T23:41:50.574Z,95582.44
2023-01-20T23:44:18.207Z,95581.47
2023-01-20T23:46:45.893Z,95584.34
2023-01-20T23:49:13.581Z,95580.25
2023-01-20T23:51:42.590Z,95584.53
2023-01-20T23:54:13.271Z,95586.59
2023-01-20T23:56:41.011Z,95591.09
2023-01-20T23:59:08.685Z,95585.16
